I Boat 2 — 2CMM8 — position and weather

sailwx.info

Track history (hours):
 
Tides and Currents Weather Stations Pressure Air Temp Water Temp Dewpoint Dewpoint Depression Visibility Wind Speed Wind Dir Waves Ship Positions

I Boat 2

Last reported at 2015-Jul-05 16:24 UTC. Time now 2015-Jul-05 19:20 UTC.
Position N 44°06' E 009°51'.

Length 40 m; draft 2.4 m.

Type: Pleasure craft. MMSI: 235074051.

Date/timePositionNaut miles runAvg speedWind from/ knotsBaromVisibWave heightAir tempDewpointWater temp
2015-Jul-05 16:24N 44°06' E 009°51'1 1.3
2015-Jul-05 15:33N 44°05' E 009°53'1313.1
2015-Jul-05 14:33N 43°58' E 010°08'1 1.3
2015-Jul-05 13:33N 43°57' E 010°09'0 0.0
2015-Jul-05 12:33N 43°57' E 010°09'0 0.0
2015-Jul-05 11:33N 43°57' E 010°09'0 0.0
2015-Jul-05 10:33N 43°57' E 010°09'0 0.0
2015-Jul-05 09:33N 43°57' E 010°09'0 0.0
2015-Jul-05 08:27N 43°57' E 010°09'0 0.0
2015-Jul-05 07:33N 43°57' E 010°09'0 0.0
2015-Jul-05 06:33N 43°57' E 010°09'0 0.0
2015-Jul-05 05:33N 43°57' E 010°09'0 0.0
2015-Jul-05 04:33N 43°57' E 010°09'0 0.0
2015-Jul-05 03:33N 43°57' E 010°09'0 0.0
2015-Jul-05 02:30N 43°57' E 010°09'0 0.0
2015-Jul-05 01:33N 43°57' E 010°09'0 0.0
2015-Jul-05 00:33N 43°57' E 010°09'0 0.0
2015-Jul-04 23:33N 43°57' E 010°09'0 0.0
2015-Jul-04 22:33N 43°57' E 010°09'0 0.0
2015-Jul-04 21:33N 43°57' E 010°09'0 0.0
2015-Jul-04 20:33N 43°57' E 010°09'2 1.5
2015-Jul-04 19:33N 43°58' E 010°08'9 9.1
2015-Jul-04 18:33N 44°02' E 009°56'4 4.1
2015-Jul-04 17:33N 44°03' E 009°51'2 1.8
2015-Jul-04 16:34N 44°04' E 009°49'0 0.1
2015-Jul-04 15:29N 44°04' E 009°49'0 0.0
2015-Jul-04 14:32N 44°04' E 009°49'0 0.0
2015-Jul-04 13:29N 44°04' E 009°49'0 0.0
2015-Jul-04 12:32N 44°04' E 009°49'0 0.3
2015-Jul-04 11:34N 44°03' E 009°49'2 1.9
2015-Jul-04 10:33N 44°03' E 009°51'0 0.0
2015-Jul-04 09:33N 44°03' E 009°51'0 0.0
2015-Jul-04 08:30N 44°03' E 009°51'0 0.0
2015-Jul-04 07:33N 44°03' E 009°51'0 0.0
2015-Jul-04 06:33N 44°03' E 009°51'0 0.0
2015-Jul-04 05:33N 44°03' E 009°51'0 0.0
2015-Jul-04 04:33N 44°03' E 009°51'0 0.0
2015-Jul-04 03:33N 44°03' E 009°51'0 0.0
2015-Jul-04 02:33N 44°03' E 009°51'0 0.0
2015-Jul-04 01:33N 44°03' E 009°51'0 0.0
2015-Jul-04 00:33N 44°03' E 009°51'0 0.0
2015-Jul-03 23:33N 44°03' E 009°51'0 0.0
2015-Jul-03 22:33N 44°03' E 009°51'0 0.0
2015-Jul-03 21:33N 44°03' E 009°51'0 0.0
2015-Jul-03 20:33N 44°03' E 009°51'0 0.0
2015-Jul-03 19:33N 44°03' E 009°51'0 0.1
2015-Jul-03 18:31N 44°03' E 009°51'0 0.0
2015-Jul-03 17:31N 44°03' E 009°51'0 0.0
2015-Jul-03 16:31N 44°03' E 009°51'0 0.0
2015-Jul-03 15:31N 44°03' E 009°51'0 0.0
2015-Jul-03 14:31N 44°03' E 009°51'0 0.0
2015-Jul-03 13:31N 44°03' E 009°51'0 0.0
2015-Jul-03 12:31N 44°03' E 009°51'0 0.0
2015-Jul-03 11:31N 44°03' E 009°51'0 0.0
2015-Jul-03 10:31N 44°03' E 009°51'0 0.0
2015-Jul-03 09:31N 44°03' E 009°51'3 2.8
2015-Jul-03 08:33N 44°05' E 009°51'0 0.4
2015-Jul-03 07:33N 44°06' E 009°51'0 0.0
2015-Jul-03 06:33N 44°06' E 009°51'0 0.0
2015-Jul-03 05:33N 44°06' E 009°51'0 0.0
2015-Jul-03 04:33N 44°06' E 009°51'0 0.0
2015-Jul-03 03:33N 44°06' E 009°51'0 0.0
2015-Jul-03 02:33N 44°06' E 009°51'0 0.0
2015-Jul-03 01:33N 44°06' E 009°51'0 0.0
2015-Jul-03 00:33N 44°06' E 009°51'0 0.0
2015-Jul-02 23:33N 44°06' E 009°51'0 0.0
2015-Jul-02 22:33N 44°06' E 009°51'0 0.0
2015-Jul-02 21:33N 44°06' E 009°51'0 0.0
2015-Jul-02 20:33N 44°06' E 009°51'0 0.0
2015-Jul-02 19:33N 44°06' E 009°51'0 0.0
2015-Jul-02 18:33N 44°06' E 009°51'0 0.0
2015-Jul-02 17:33N 44°06' E 009°51'0 0.0
2015-Jul-02 16:33N 44°06' E 009°51'0 0.0
2015-Jul-02 15:33N 44°06' E 009°51'0 0.0
2015-Jul-02 14:30N 44°06' E 009°51'0 0.0
2015-Jul-02 13:33N 44°06' E 009°51'0 0.0
2015-Jul-02 12:33N 44°06' E 009°51'0 0.0
2015-Jul-02 11:33N 44°06' E 009°51'0 0.0
2015-Jul-02 10:33N 44°06' E 009°51'0 0.0
2015-Jul-02 09:33N 44°06' E 009°51'0 0.0
2015-Jul-02 08:30N 44°06' E 009°51'  
Track history (hours):
 
Tides and Currents Weather Stations Pressure Air Temp Water Temp Dewpoint Dewpoint Depression Visibility Wind Speed Wind Dir Waves Ship Positions

I Boat 2

Last reported at 2015-Jul-05 16:24 UTC. Time now 2015-Jul-05 19:20 UTC.
Position N 44°06' E 009°51'.

Length 40 m; draft 2.4 m.

Type: Pleasure craft. MMSI: 235074051.

Date/timePositionNaut miles runAvg speedWind from/ knotsBaromVisibWave heightAir tempDewpointWater temp
2015-Jul-05 16:24N 44°06' E 009°51'1 1.3
2015-Jul-05 15:33N 44°05' E 009°53'1313.1
2015-Jul-05 14:33N 43°58' E 010°08'1 1.3
2015-Jul-05 13:33N 43°57' E 010°09'0 0.0
2015-Jul-05 12:33N 43°57' E 010°09'0 0.0
2015-Jul-05 11:33N 43°57' E 010°09'0 0.0
2015-Jul-05 10:33N 43°57' E 010°09'0 0.0
2015-Jul-05 09:33N 43°57' E 010°09'0 0.0
2015-Jul-05 08:27N 43°57' E 010°09'0 0.0
2015-Jul-05 07:33N 43°57' E 010°09'0 0.0
2015-Jul-05 06:33N 43°57' E 010°09'0 0.0
2015-Jul-05 05:33N 43°57' E 010°09'0 0.0
2015-Jul-05 04:33N 43°57' E 010°09'0 0.0
2015-Jul-05 03:33N 43°57' E 010°09'0 0.0
2015-Jul-05 02:30N 43°57' E 010°09'0 0.0
2015-Jul-05 01:33N 43°57' E 010°09'0 0.0
2015-Jul-05 00:33N 43°57' E 010°09'0 0.0
2015-Jul-04 23:33N 43°57' E 010°09'0 0.0
2015-Jul-04 22:33N 43°57' E 010°09'0 0.0
2015-Jul-04 21:33N 43°57' E 010°09'0 0.0
2015-Jul-04 20:33N 43°57' E 010°09'2 1.5
2015-Jul-04 19:33N 43°58' E 010°08'9 9.1
2015-Jul-04 18:33N 44°02' E 009°56'4 4.1
2015-Jul-04 17:33N 44°03' E 009°51'2 1.8
2015-Jul-04 16:34N 44°04' E 009°49'0 0.1
2015-Jul-04 15:29N 44°04' E 009°49'0 0.0
2015-Jul-04 14:32N 44°04' E 009°49'0 0.0
2015-Jul-04 13:29N 44°04' E 009°49'0 0.0
2015-Jul-04 12:32N 44°04' E 009°49'0 0.3
2015-Jul-04 11:34N 44°03' E 009°49'2 1.9
2015-Jul-04 10:33N 44°03' E 009°51'0 0.0
2015-Jul-04 09:33N 44°03' E 009°51'0 0.0
2015-Jul-04 08:30N 44°03' E 009°51'0 0.0
2015-Jul-04 07:33N 44°03' E 009°51'0 0.0
2015-Jul-04 06:33N 44°03' E 009°51'0 0.0
2015-Jul-04 05:33N 44°03' E 009°51'0 0.0
2015-Jul-04 04:33N 44°03' E 009°51'0 0.0
2015-Jul-04 03:33N 44°03' E 009°51'0 0.0
2015-Jul-04 02:33N 44°03' E 009°51'0 0.0
2015-Jul-04 01:33N 44°03' E 009°51'0 0.0
2015-Jul-04 00:33N 44°03' E 009°51'0 0.0
2015-Jul-03 23:33N 44°03' E 009°51'0 0.0
2015-Jul-03 22:33N 44°03' E 009°51'0 0.0
2015-Jul-03 21:33N 44°03' E 009°51'0 0.0
2015-Jul-03 20:33N 44°03' E 009°51'0 0.0
2015-Jul-03 19:33N 44°03' E 009°51'0 0.1
2015-Jul-03 18:31N 44°03' E 009°51'0 0.0
2015-Jul-03 17:31N 44°03' E 009°51'0 0.0
2015-Jul-03 16:31N 44°03' E 009°51'0 0.0
2015-Jul-03 15:31N 44°03' E 009°51'0 0.0
2015-Jul-03 14:31N 44°03' E 009°51'0 0.0
2015-Jul-03 13:31N 44°03' E 009°51'0 0.0
2015-Jul-03 12:31N 44°03' E 009°51'0 0.0
2015-Jul-03 11:31N 44°03' E 009°51'0 0.0
2015-Jul-03 10:31N 44°03' E 009°51'0 0.0
2015-Jul-03 09:31N 44°03' E 009°51'3 2.8
2015-Jul-03 08:33N 44°05' E 009°51'0 0.4
2015-Jul-03 07:33N 44°06' E 009°51'0 0.0
2015-Jul-03 06:33N 44°06' E 009°51'0 0.0
2015-Jul-03 05:33N 44°06' E 009°51'0 0.0
2015-Jul-03 04:33N 44°06' E 009°51'0 0.0
2015-Jul-03 03:33N 44°06' E 009°51'0 0.0
2015-Jul-03 02:33N 44°06' E 009°51'0 0.0
2015-Jul-03 01:33N 44°06' E 009°51'0 0.0
2015-Jul-03 00:33N 44°06' E 009°51'0 0.0
2015-Jul-02 23:33N 44°06' E 009°51'0 0.0
2015-Jul-02 22:33N 44°06' E 009°51'0 0.0
2015-Jul-02 21:33N 44°06' E 009°51'0 0.0
2015-Jul-02 20:33N 44°06' E 009°51'0 0.0
2015-Jul-02 19:33N 44°06' E 009°51'0 0.0
2015-Jul-02 18:33N 44°06' E 009°51'0 0.0
2015-Jul-02 17:33N 44°06' E 009°51'0 0.0
2015-Jul-02 16:33N 44°06' E 009°51'0 0.0
2015-Jul-02 15:33N 44°06' E 009°51'0 0.0
2015-Jul-02 14:30N 44°06' E 009°51'0 0.0
2015-Jul-02 13:33N 44°06' E 009°51'0 0.0
2015-Jul-02 12:33N 44°06' E 009°51'0 0.0
2015-Jul-02 11:33N 44°06' E 009°51'0 0.0
2015-Jul-02 10:33N 44°06' E 009°51'0 0.0
2015-Jul-02 09:33N 44°06' E 009°51'0 0.0
2015-Jul-02 08:30N 44°06' E 009°51'  

Dump ship's entire track history